createdAt,value
2018-10-19T00:00:41.568Z,9.4
2018-10-19T00:01:41.610Z,9.42
2018-10-19T00:02:41.622Z,9.43
2018-10-19T00:03:41.554Z,9.41
2018-10-19T00:04:41.612Z,9.41
2018-10-19T00:05:41.950Z,9.38
2018-10-19T00:06:41.574Z,9.42
2018-10-19T00:07:41.555Z,9.44
2018-10-19T00:08:41.569Z,9.41
2018-10-19T00:09:41.561Z,9.44
2018-10-19T00:10:41.586Z,9.41
2018-10-19T00:11:41.589Z,9.41
2018-10-19T00:12:41.931Z,9.4
2018-10-19T00:13:41.550Z,9.45
2018-10-19T00:14:41.555Z,9.44
2018-10-19T00:16:41.526Z,9.44
2018-10-19T00:17:41.531Z,9.45
2018-10-19T00:18:41.791Z,9.44
2018-10-19T00:19:41.544Z,9.37
2018-10-19T00:20:41.557Z,9.37
2018-10-19T00:21:41.532Z,9.42
2018-10-19T00:22:41.543Z,9.41
2018-10-19T00:23:41.550Z,9.43
2018-10-19T00:24:41.623Z,9.44
2018-10-19T00:25:41.554Z,9.42
2018-10-19T00:26:41.855Z,9.43
2018-10-19T00:27:41.594Z,9.39
2018-10-19T00:28:41.620Z,9.38
2018-10-19T00:29:41.554Z,9.33
2018-10-19T00:30:41.877Z,9.32
2018-10-19T00:31:41.539Z,9.31
2018-10-19T00:32:41.554Z,9.27
2018-10-19T00:33:41.594Z,9.3
2018-10-19T00:34:41.506Z,9.27
2018-10-19T00:35:41.658Z,9.25
2018-10-19T00:36:42.218Z,9.31
2018-10-19T00:37:41.575Z,9.2
2018-10-19T00:38:41.527Z,9.23
2018-10-19T00:39:41.734Z,9.21
2018-10-19T00:40:41.570Z,9.27
2018-10-19T00:41:41.636Z,9.25
2018-10-19T00:42:41.508Z,9.26
2018-10-19T00:43:41.626Z,9.22
2018-10-19T00:44:41.519Z,9.2
2018-10-19T00:45:41.865Z,9.21
2018-10-19T00:46:41.507Z,9.18
2018-10-19T00:47:41.585Z,9.2
2018-10-19T00:48:41.700Z,9.23
2018-10-19T00:49:41.677Z,9.2
2018-10-19T00:50:41.592Z,9.3
2018-10-19T00:51:41.500Z,9.25
2018-10-19T00:52:41.597Z,9.23
2018-10-19T00:53:41.488Z,9.24
2018-10-19T00:54:41.920Z,9.26
2018-10-19T00:55:41.753Z,9.23
2018-10-19T00:56:41.532Z,9.21
2018-10-19T00:57:41.515Z,9.33
2018-10-19T00:58:41.543Z,9.32
2018-10-19T00:59:41.694Z,9.26
2018-10-19T01:00:41.710Z,9.29
2018-10-19T01:01:41.593Z,9.26
2018-10-19T01:02:41.545Z,9.19
2018-10-19T01:03:41.553Z,9.25
2018-10-19T01:04:41.663Z,9.22
2018-10-19T01:05:41.654Z,9.22
2018-10-19T01:06:41.922Z,9.25
2018-10-19T01:07:41.592Z,9.26
2018-10-19T01:08:41.519Z,9.23
2018-10-19T01:09:41.598Z,9.21
2018-10-19T01:10:41.608Z,9.2
2018-10-19T01:11:41.474Z,9.22
2018-10-19T01:12:41.584Z,9.18
2018-10-19T01:13:41.704Z,9.15
2018-10-19T01:14:41.476Z,9.19
2018-10-19T01:15:41.563Z,9.18
2018-10-19T01:16:41.639Z,9.14
2018-10-19T01:17:41.602Z,9.17
2018-10-19T01:18:41.511Z,9.14
2018-10-19T01:19:41.516Z,9.13
2018-10-19T01:20:41.464Z,9.11
2018-10-19T01:21:41.678Z,9.14
2018-10-19T01:22:41.489Z,9.07
2018-10-19T01:23:41.534Z,9.12
2018-10-19T01:24:41.424Z,9.1
2018-10-19T01:25:41.748Z,9.12
2018-10-19T01:26:41.478Z,9.09
2018-10-19T01:27:41.777Z,9.09
2018-10-19T01:28:41.553Z,9.1
2018-10-19T01:29:41.489Z,9.07
2018-10-19T01:30:41.509Z,9.05
2018-10-19T01:31:41.477Z,9.04
2018-10-19T01:32:41.442Z,9.01
2018-10-19T01:33:41.563Z,9.05
2018-10-19T01:34:41.466Z,9.02
2018-10-19T01:35:41.570Z,9
2018-10-19T01:36:41.436Z,8.98
2018-10-19T01:37:41.740Z,9.03
2018-10-19T01:38:41.440Z,8.99
2018-10-19T01:39:41.475Z,9.02
2018-10-19T01:40:41.440Z,8.99
2018-10-19T01:41:41.772Z,9.03
2018-10-19T01:42:41.430Z,9.04
2018-10-19T01:43:41.496Z,9.02
2018-10-19T01:44:41.448Z,9.02
2018-10-19T01:45:41.705Z,9
2018-10-19T01:46:41.427Z,8.98
2018-10-19T01:47:41.547Z,9.02
2018-10-19T01:48:41.413Z,9.02
2018-10-19T01:49:41.599Z,9.04
2018-10-19T01:50:41.482Z,8.98
2018-10-19T01:51:41.411Z,9
2018-10-19T01:52:41.438Z,9.02
2018-10-19T01:53:41.452Z,8.98
2018-10-19T01:54:41.515Z,8.95
2018-10-19T01:55:41.451Z,8.97
2018-10-19T01:56:41.403Z,9.02
2018-10-19T01:57:41.506Z,8.96
2018-10-19T01:58:41.542Z,8.98
2018-10-19T01:59:41.392Z,8.98
2018-10-19T02:00:41.524Z,8.95
2018-10-19T02:01:42.126Z,8.96
2018-10-19T02:02:41.700Z,8.94
2018-10-19T02:03:41.788Z,8.9
2018-10-19T02:04:41.525Z,8.87
2018-10-19T02:05:41.393Z,8.88
2018-10-19T02:06:41.425Z,8.95
2018-10-19T02:07:41.602Z,8.95
2018-10-19T02:08:41.548Z,8.95
2018-10-19T02:09:41.415Z,8.93
2018-10-19T02:10:41.442Z,8.92
2018-10-19T02:11:41.499Z,8.91
2018-10-19T02:12:41.569Z,8.92
2018-10-19T02:13:41.421Z,8.91
2018-10-19T02:14:41.689Z,8.88
2018-10-19T02:15:41.535Z,8.87
2018-10-19T02:16:41.411Z,8.87
2018-10-19T02:17:41.594Z,8.83
2018-10-19T02:18:41.630Z,8.85
2018-10-19T02:19:41.492Z,8.87
2018-10-19T02:20:41.425Z,8.86
2018-10-19T02:21:41.423Z,8.86
2018-10-19T02:22:41.429Z,8.81
2018-10-19T02:23:41.536Z,8.81
2018-10-19T02:24:41.418Z,8.83
2018-10-19T02:25:41.390Z,8.8
2018-10-19T02:26:41.442Z,8.83
2018-10-19T02:27:41.620Z,8.82
2018-10-19T02:28:41.457Z,8.79
2018-10-19T02:29:41.443Z,8.81
2018-10-19T02:30:41.458Z,8.8
2018-10-19T02:31:41.468Z,8.83
2018-10-19T02:32:41.351Z,8.82
2018-10-19T02:33:41.767Z,8.87
2018-10-19T02:34:41.368Z,8.82
2018-10-19T02:35:41.644Z,8.81
2018-10-19T02:36:41.380Z,8.86
2018-10-19T02:37:41.372Z,8.85
2018-10-19T02:38:41.530Z,8.86
2018-10-19T02:39:41.675Z,8.84
2018-10-19T02:40:41.536Z,8.81
2018-10-19T02:41:41.676Z,8.79
2018-10-19T02:42:41.783Z,8.77
2018-10-19T02:43:41.378Z,8.81
2018-10-19T02:44:41.335Z,8.83
2018-10-19T02:45:41.529Z,8.84
2018-10-19T02:46:41.413Z,8.8
2018-10-19T02:47:41.341Z,8.8
2018-10-19T02:48:41.745Z,8.77
2018-10-19T02:49:41.363Z,8.78
2018-10-19T02:50:41.409Z,8.77
2018-10-19T02:51:41.342Z,8.73
2018-10-19T02:52:41.355Z,8.68
2018-10-19T02:53:41.354Z,8.69
2018-10-19T02:54:41.321Z,8.72
2018-10-19T02:55:41.367Z,8.67
2018-10-19T02:56:41.438Z,8.66
2018-10-19T02:57:41.707Z,8.68
2018-10-19T02:58:41.575Z,8.65
2018-10-19T02:59:41.617Z,8.69
2018-10-19T03:00:41.576Z,8.72
2018-10-19T03:01:41.358Z,8.69
2018-10-19T03:02:41.328Z,8.69
2018-10-19T03:03:41.503Z,8.72
2018-10-19T03:04:41.379Z,8.72
2018-10-19T03:05:41.356Z,8.73
2018-10-19T03:06:41.365Z,8.7
2018-10-19T03:07:41.351Z,8.66
2018-10-19T03:08:41.539Z,8.63
2018-10-19T03:09:41.395Z,8.63
2018-10-19T03:10:41.439Z,8.65
2018-10-19T03:11:42.299Z,8.6
2018-10-19T03:12:41.351Z,8.62
2018-10-19T03:13:41.319Z,8.57
2018-10-19T03:14:41.343Z,8.58
2018-10-19T03:15:41.475Z,8.62
2018-10-19T03:16:41.325Z,8.61
2018-10-19T03:17:41.322Z,8.6
2018-10-19T03:18:41.342Z,8.64
2018-10-19T03:19:41.675Z,8.62
2018-10-19T03:20:41.326Z,8.56
2018-10-19T03:21:41.333Z,8.57
2018-10-19T03:23:08.048Z,8.53
2018-10-19T03:24:07.497Z,8.61
2018-10-19T03:25:07.490Z,8.57
2018-10-19T03:26:07.456Z,8.57
2018-10-19T03:27:08.164Z,8.56
2018-10-19T03:28:07.492Z,8.63
2018-10-19T03:29:08.070Z,8.63
2018-10-19T03:30:07.521Z,8.61
2018-10-19T03:31:08.599Z,8.61
2018-10-19T03:32:07.568Z,8.61
2018-10-19T03:33:08.063Z,8.6
2018-10-19T03:34:07.814Z,8.61
2018-10-19T03:35:08.387Z,8.57
2018-10-19T03:36:07.426Z,8.55
2018-10-19T03:37:07.459Z,8.58
2018-10-19T03:38:07.790Z,8.6
2018-10-19T03:39:08.372Z,8.63
2018-10-19T03:40:07.483Z,8.56
2018-10-19T03:41:07.998Z,8.54
2018-10-19T03:42:07.530Z,8.52
2018-10-19T03:43:07.676Z,8.52
2018-10-19T03:44:07.579Z,8.54
2018-10-19T03:45:08.189Z,8.59
2018-10-19T03:46:07.769Z,8.53
2018-10-19T03:47:07.933Z,8.54
2018-10-19T03:48:07.521Z,8.54
2018-10-19T03:49:07.945Z,8.57
2018-10-19T03:50:07.435Z,8.54
2018-10-19T03:51:08.218Z,8.56
2018-10-19T03:52:07.438Z,8.5
2018-10-19T03:53:08.089Z,8.53
2018-10-19T03:54:07.415Z,8.52
2018-10-19T03:55:07.473Z,8.49
2018-10-19T03:56:07.568Z,8.52
2018-10-19T03:57:08.040Z,8.45
2018-10-19T03:58:07.435Z,8.44
2018-10-19T03:59:08.002Z,8.5
2018-10-19T04:00:07.852Z,8.49
2018-10-19T04:01:07.504Z,8.47
2018-10-19T04:02:07.528Z,8.49
2018-10-19T04:03:08.490Z,8.5
2018-10-19T04:04:07.476Z,8.51
2018-10-19T04:05:08.153Z,8.48
2018-10-19T04:06:07.542Z,8.48
2018-10-19T04:07:07.515Z,8.46
2018-10-19T04:08:07.426Z,8.46
2018-10-19T04:09:08.041Z,8.47
2018-10-19T04:10:07.513Z,8.47
2018-10-19T04:11:07.942Z,8.48
2018-10-19T04:12:07.439Z,8.47
2018-10-19T04:13:07.643Z,8.45
2018-10-19T04:14:07.398Z,8.44
2018-10-19T04:15:07.824Z,8.44
2018-10-19T04:16:07.446Z,8.41
2018-10-19T04:17:08.358Z,8.41
2018-10-19T04:18:07.392Z,8.41
2018-10-19T04:19:07.374Z,8.4
2018-10-19T04:20:07.532Z,8.39
2018-10-19T04:21:07.975Z,8.38
2018-10-19T04:22:07.424Z,8.31
2018-10-19T04:23:07.996Z,8.37
2018-10-19T04:24:07.843Z,8.36
2018-10-19T04:25:07.408Z,8.34
2018-10-19T04:26:07.854Z,8.32
2018-10-19T04:27:08.111Z,8.31
2018-10-19T04:28:07.384Z,8.31
2018-10-19T04:29:08.298Z,8.29
2018-10-19T04:30:07.376Z,8.29
2018-10-19T04:31:07.426Z,8.28
2018-10-19T04:32:07.531Z,8.27
2018-10-19T04:33:08.499Z,8.26
2018-10-19T04:34:07.764Z,8.23
2018-10-19T04:35:07.980Z,8.24
2018-10-19T04:36:07.445Z,8.23
2018-10-19T04:37:07.352Z,8.2
2018-10-19T04:38:07.332Z,8.22
2018-10-19T04:39:08.144Z,8.2
2018-10-19T04:40:07.337Z,8.16
2018-10-19T04:41:08.084Z,8.15
2018-10-19T04:42:09.045Z,8.13
2018-10-19T04:43:07.374Z,8.13
2018-10-19T04:44:07.585Z,8.08
2018-10-19T04:45:07.750Z,8.05
2018-10-19T04:46:07.388Z,8.06
2018-10-19T04:47:07.758Z,8.05
2018-10-19T04:48:07.496Z,8.06
2018-10-19T04:49:07.444Z,8.04
2018-10-19T04:50:07.357Z,8.07
2018-10-19T04:51:08.118Z,8.04
2018-10-19T04:52:08.660Z,8.03
2018-10-19T04:53:08.071Z,8.02
2018-10-19T04:54:07.384Z,8.03
2018-10-19T04:55:07.397Z,8.01
2018-10-19T04:56:07.473Z,8.03
2018-10-19T04:57:07.887Z,8.02
2018-10-19T04:58:07.338Z,8.02
2018-10-19T04:59:08.340Z,8.05
2018-10-19T05:00:07.355Z,8.06
2018-10-19T05:01:07.397Z,8.06
2018-10-19T05:02:07.354Z,8.06
2018-10-19T05:03:08.042Z,8.02
2018-10-19T05:04:07.675Z,8.04
2018-10-19T05:05:08.921Z,8.11
2018-10-19T05:06:07.896Z,8.09
2018-10-19T05:07:07.424Z,8.13
2018-10-19T05:08:08.457Z,8.14
2018-10-19T05:09:07.423Z,8.14
2018-10-19T05:10:07.347Z,8.13
2018-10-19T05:11:07.826Z,8.18
2018-10-19T05:12:07.288Z,8.14
2018-10-19T05:13:08.524Z,8.13
2018-10-19T05:14:07.985Z,8.19
2018-10-19T05:15:07.777Z,8.17
2018-10-19T05:17:07.987Z,8.22
2018-10-19T05:18:07.297Z,8.14
2018-10-19T05:19:07.448Z,8.18
2018-10-19T05:20:07.920Z,8.16
2018-10-19T05:21:07.677Z,8.17
2018-10-19T05:22:07.367Z,8.17
2018-10-19T05:23:07.874Z,8.16
2018-10-19T05:24:07.282Z,8.16
2018-10-19T05:25:07.304Z,8.13
2018-10-19T05:26:07.805Z,8.11
2018-10-19T05:27:07.270Z,8.13
2018-10-19T05:28:07.314Z,8.13
2018-10-19T05:29:07.750Z,8.15
2018-10-19T05:30:07.504Z,8.14
2018-10-19T05:31:07.325Z,8.14
2018-10-19T05:32:07.669Z,8.12
2018-10-19T05:33:07.685Z,8.18
2018-10-19T05:34:07.352Z,8.15
2018-10-19T05:35:07.669Z,8.12
2018-10-19T05:36:07.427Z,8.15
2018-10-19T05:37:07.341Z,8.11
2018-10-19T05:38:08.024Z,8.12
2018-10-19T05:39:07.358Z,8.13
2018-10-19T05:40:07.475Z,8.11
2018-10-19T05:41:07.961Z,8.15
2018-10-19T05:42:07.561Z,8.13
2018-10-19T05:43:07.392Z,8.15
2018-10-19T05:44:08.318Z,8.17
2018-10-19T05:45:07.286Z,8.13
2018-10-19T05:46:07.294Z,8.12
2018-10-19T05:47:07.849Z,8.12
2018-10-19T05:48:07.277Z,8.13
2018-10-19T05:49:07.530Z,8.1
2018-10-19T05:50:07.834Z,8.12
2018-10-19T05:51:07.259Z,8.13
2018-10-19T05:52:07.807Z,8.13
2018-10-19T05:53:07.778Z,8.1
2018-10-19T05:54:07.236Z,8.12
2018-10-19T05:55:07.295Z,8.09
2018-10-19T05:56:07.767Z,8.12
2018-10-19T05:57:07.558Z,8.11
2018-10-19T05:58:07.494Z,8.09
2018-10-19T05:59:08.136Z,8.09
2018-10-19T06:00:07.289Z,8.08
2018-10-19T06:01:07.229Z,8.09
2018-10-19T06:02:08.310Z,8.07
2018-10-19T06:03:07.429Z,8.1
2018-10-19T06:04:07.326Z,8.12
2018-10-19T06:05:08.045Z,8.1
2018-10-19T06:06:07.264Z,8.14
2018-10-19T06:07:07.334Z,8.11
2018-10-19T06:08:07.787Z,8.13
2018-10-19T06:09:07.278Z,8.13
2018-10-19T06:10:09.517Z,8.11
2018-10-19T06:11:10.589Z,8.11
2018-10-19T06:12:09.504Z,8.13
2018-10-19T06:13:09.605Z,8.13
2018-10-19T06:14:10.233Z,8.13
2018-10-19T06:15:09.554Z,8.13
2018-10-19T06:16:09.563Z,8.17
2018-10-19T06:17:10.013Z,8.16
2018-10-19T06:18:09.524Z,8.15
2018-10-19T06:19:09.838Z,8.19
2018-10-19T06:20:10.617Z,8.17
2018-10-19T06:21:10.332Z,8.13
2018-10-19T06:22:09.573Z,8.13
2018-10-19T06:23:10.153Z,8.21
2018-10-19T06:24:09.492Z,8.16
2018-10-19T06:25:09.504Z,8.16
2018-10-19T06:26:10.804Z,8.14
2018-10-19T06:27:09.736Z,8.16
2018-10-19T06:28:09.552Z,8.16
2018-10-19T06:29:10.005Z,8.16
2018-10-19T06:30:09.490Z,8.18
2018-10-19T06:31:09.501Z,8.16
2018-10-19T06:32:09.961Z,8.17
2018-10-19T06:33:09.491Z,8.18
2018-10-19T06:34:09.567Z,8.18
2018-10-19T06:35:10.100Z,8.2
2018-10-19T06:36:09.461Z,8.18
2018-10-19T06:37:09.458Z,8.18
2018-10-19T06:38:10.298Z,8.19
2018-10-19T06:39:09.499Z,8.17
2018-10-19T06:40:09.462Z,8.21
2018-10-19T06:41:10.153Z,8.23
2018-10-19T06:42:09.703Z,8.22
2018-10-19T06:43:09.589Z,8.2
2018-10-19T06:44:10.177Z,8.21
2018-10-19T06:45:09.617Z,8.26
2018-10-19T06:46:09.550Z,8.23
2018-10-19T06:47:10.932Z,8.25
2018-10-19T06:48:09.465Z,8.3
2018-10-19T06:49:10.248Z,8.27
2018-10-19T06:50:10.383Z,8.28
2018-10-19T06:51:09.659Z,8.26
2018-10-19T06:52:09.472Z,8.2
2018-10-19T06:53:10.477Z,8.19
2018-10-19T06:54:09.514Z,8.23
2018-10-19T06:55:09.565Z,8.18
2018-10-19T06:56:10.087Z,8.18
2018-10-19T06:57:09.467Z,8.24
2018-10-19T06:58:09.435Z,8.26
2018-10-19T06:59:11.007Z,8.23
2018-10-19T07:00:09.483Z,8.23
2018-10-19T07:01:09.486Z,8.24
2018-10-19T07:02:10.078Z,8.3
2018-10-19T07:03:09.504Z,8.3
2018-10-19T07:04:09.930Z,8.3
2018-10-19T07:05:09.901Z,8.32
2018-10-19T07:06:10.969Z,8.32
2018-10-19T07:07:09.443Z,8.34
2018-10-19T07:08:10.449Z,8.28
2018-10-19T07:09:09.538Z,8.28
2018-10-19T07:10:09.417Z,8.33
2018-10-19T07:11:10.337Z,8.34
2018-10-19T07:12:10.071Z,8.35
2018-10-19T07:13:09.479Z,8.35
2018-10-19T07:14:09.978Z,8.36
2018-10-19T07:15:09.417Z,8.36
2018-10-19T07:16:09.731Z,8.33
2018-10-19T07:17:10.330Z,8.34
2018-10-19T07:18:10.034Z,8.35
2018-10-19T07:19:10.295Z,8.38
2018-10-19T07:20:10.610Z,8.39
2018-10-19T07:21:09.522Z,8.41
2018-10-19T07:22:09.384Z,8.41
2018-10-19T07:23:10.432Z,8.44
2018-10-19T07:24:09.403Z,8.51
2018-10-19T07:26:10.342Z,8.51
2018-10-19T07:27:09.392Z,8.49
2018-10-19T07:28:09.393Z,8.52
2018-10-19T07:29:10.033Z,8.55
2018-10-19T07:30:09.663Z,8.53
2018-10-19T07:31:09.411Z,8.58
2018-10-19T07:32:10.224Z,8.66
2018-10-19T07:33:09.372Z,8.62
2018-10-19T07:34:09.505Z,8.6
2018-10-19T07:35:10.207Z,8.62
2018-10-19T07:36:09.574Z,8.61
2018-10-19T07:37:09.452Z,8.64
2018-10-19T07:38:10.008Z,8.68
2018-10-19T07:39:09.851Z,8.68
2018-10-19T07:40:09.527Z,8.69
2018-10-19T07:41:10.350Z,8.7
2018-10-19T07:42:10.114Z,8.67
2018-10-19T07:43:09.388Z,8.69
2018-10-19T07:44:09.924Z,8.78
2018-10-19T07:45:09.490Z,8.79
2018-10-19T07:46:09.395Z,8.76
2018-10-19T07:47:10.209Z,8.8
2018-10-19T07:48:11.723Z,8.81
2018-10-19T07:49:09.782Z,8.79
2018-10-19T07:50:09.774Z,8.8
2018-10-19T07:51:09.368Z,8.85
2018-10-19T07:52:09.378Z,8.87
2018-10-19T07:53:09.838Z,8.85
2018-10-19T07:54:10.091Z,8.9
2018-10-19T07:55:09.397Z,8.89
2018-10-19T07:56:10.041Z,8.91
2018-10-19T07:57:09.747Z,8.93
2018-10-19T07:58:09.531Z,8.92
2018-10-19T07:59:10.288Z,8.93
2018-10-19T08:00:09.940Z,9.01
2018-10-19T08:01:09.927Z,9.03
2018-10-19T08:02:10.042Z,9.06
2018-10-19T08:02:44.257Z,9.06
2018-10-19T08:03:43.850Z,9.08
2018-10-19T08:04:43.883Z,9.08
2018-10-19T08:05:44.275Z,9.09
2018-10-19T08:06:44.282Z,9.12
2018-10-19T08:07:44.057Z,9.13
2018-10-19T08:08:44.238Z,9.12
2018-10-19T08:09:43.920Z,9.12
2018-10-19T08:10:44.142Z,9.2
2018-10-19T08:11:44.013Z,9.19
2018-10-19T08:12:43.877Z,9.21
2018-10-19T08:13:43.939Z,9.25
2018-10-19T08:14:44.053Z,9.28
2018-10-19T08:15:44.028Z,9.26
2018-10-19T08:16:44.039Z,9.33
2018-10-19T08:17:43.846Z,9.29
2018-10-19T08:18:43.935Z,9.31
2018-10-19T08:19:44.035Z,9.32
2018-10-19T08:20:43.890Z,9.35
2018-10-19T08:21:44.194Z,9.35
2018-10-19T08:22:43.863Z,9.35
2018-10-19T08:23:43.901Z,9.34
2018-10-19T08:24:43.836Z,9.38
2018-10-19T08:25:43.870Z,9.38
2018-10-19T08:26:44.131Z,9.4
2018-10-19T08:27:44.368Z,9.41
2018-10-19T08:28:43.879Z,9.4
2018-10-19T08:29:43.856Z,9.43
2018-10-19T08:30:43.833Z,9.45
2018-10-19T08:31:44.256Z,9.45
2018-10-19T08:32:43.877Z,9.47
2018-10-19T08:33:43.827Z,9.52
2018-10-19T08:34:43.860Z,9.55
2018-10-19T08:35:43.821Z,9.53
2018-10-19T08:36:43.855Z,9.52
2018-10-19T08:37:43.864Z,9.55
2018-10-19T08:38:43.902Z,9.54
2018-10-19T08:39:43.813Z,9.59
2018-10-19T08:40:43.825Z,9.58
2018-10-19T08:41:45.004Z,9.62
2018-10-19T08:42:44.208Z,9.61
2018-10-19T08:43:43.870Z,9.59
2018-10-19T08:44:43.793Z,9.67
2018-10-19T08:45:43.907Z,9.65
2018-10-19T08:46:43.811Z,9.69
2018-10-19T08:47:44.913Z,9.69
2018-10-19T08:48:44.357Z,9.71
2018-10-19T08:49:43.904Z,9.72
2018-10-19T08:50:44.194Z,9.71
2018-10-19T08:51:43.873Z,9.71
2018-10-19T08:52:43.816Z,9.7
2018-10-19T08:53:44.273Z,9.76
2018-10-19T08:54:44.582Z,9.79
2018-10-19T08:55:43.800Z,9.82
2018-10-19T08:56:43.844Z,9.84
2018-10-19T08:57:44.391Z,9.87
2018-10-19T08:58:43.790Z,9.83
2018-10-19T08:59:44.198Z,9.88
2018-10-19T09:00:43.995Z,9.83
2018-10-19T09:01:43.797Z,9.88
2018-10-19T09:02:43.845Z,9.92
2018-10-19T09:03:43.784Z,9.86
2018-10-19T09:04:43.758Z,9.86
2018-10-19T09:05:43.783Z,9.85
2018-10-19T09:06:43.823Z,9.9
2018-10-19T09:07:44.182Z,9.91
2018-10-19T09:08:43.825Z,9.92
2018-10-19T09:09:43.820Z,9.95
2018-10-19T09:10:44.238Z,9.97
2018-10-19T09:11:44.277Z,9.91
2018-10-19T09:12:44.702Z,9.95
2018-10-19T09:13:43.795Z,9.96
2018-10-19T09:14:43.797Z,9.97
2018-10-19T09:15:43.816Z,9.96
2018-10-19T09:16:43.781Z,9.9
2018-10-19T09:17:43.808Z,9.91
2018-10-19T09:18:44.054Z,9.93
2018-10-19T09:19:43.763Z,9.93
2018-10-19T09:20:43.838Z,9.93
2018-10-19T09:21:43.776Z,9.94
2018-10-19T09:22:43.905Z,10.01
2018-10-19T09:23:43.733Z,9.99
2018-10-19T09:24:43.800Z,10.02
2018-10-19T09:25:43.770Z,10.02
2018-10-19T09:26:43.801Z,9.95
2018-10-19T09:27:43.784Z,9.91
2018-10-19T09:28:43.869Z,10.02
2018-10-19T09:29:43.780Z,9.94
2018-10-19T09:30:43.773Z,10
2018-10-19T09:31:43.788Z,9.95
2018-10-19T09:32:43.771Z,9.98
2018-10-19T09:33:43.952Z,9.99
2018-10-19T09:34:43.727Z,10.01
2018-10-19T09:35:44.788Z,10.03
2018-10-19T09:36:45.482Z,10.01
2018-10-19T09:37:44.086Z,10
2018-10-19T09:38:43.904Z,10.05
2018-10-19T09:39:43.758Z,10.03
2018-10-19T09:40:44.098Z,10.03
2018-10-19T09:41:43.761Z,10
2018-10-19T09:42:43.816Z,10
2018-10-19T09:43:43.736Z,10.07
2018-10-19T09:44:43.989Z,10.03
2018-10-19T09:45:43.735Z,9.99
2018-10-19T09:46:43.795Z,10.04
2018-10-19T09:47:43.863Z,10.05
2018-10-19T09:48:43.782Z,10.03
2018-10-19T09:49:43.761Z,9.97
2018-10-19T09:50:43.782Z,10.05
2018-10-19T09:51:43.759Z,9.98
2018-10-19T09:52:43.829Z,10.04
2018-10-19T09:53:43.778Z,10.06
2018-10-19T09:54:44.018Z,10.04
2018-10-19T09:55:43.849Z,10.09
2018-10-19T09:56:43.832Z,10.05
2018-10-19T09:57:43.774Z,10.05
2018-10-19T09:58:43.742Z,10.07
2018-10-19T09:59:43.773Z,10.06
2018-10-19T10:00:43.924Z,10.08
2018-10-19T10:01:43.858Z,10.14
2018-10-19T10:02:43.755Z,10.08
2018-10-19T10:03:43.802Z,10.1
2018-10-19T10:04:43.797Z,10.1
2018-10-19T10:05:43.781Z,10.09
2018-10-19T10:06:43.803Z,10.07
2018-10-19T10:07:44.216Z,10.02
2018-10-19T10:08:43.755Z,10.03
2018-10-19T10:09:43.749Z,10.1
2018-10-19T10:10:43.824Z,10.1
2018-10-19T10:11:43.701Z,10.04
2018-10-19T10:12:43.709Z,10.03
2018-10-19T10:13:43.802Z,10.06
2018-10-19T10:14:44.225Z,9.96
2018-10-19T10:15:44.266Z,10
2018-10-19T10:16:43.794Z,10.01
2018-10-19T10:17:43.771Z,10.07
2018-10-19T10:18:43.693Z,10.07
2018-10-19T10:19:43.877Z,10.15
2018-10-19T10:20:43.687Z,10.07
2018-10-19T10:21:43.747Z,9.96
2018-10-19T10:22:43.808Z,9.97
2018-10-19T10:23:43.997Z,10
2018-10-19T10:24:44.542Z,9.99
2018-10-19T10:25:44.209Z,10.01
2018-10-19T10:26:43.711Z,10.13
2018-10-19T10:27:44.209Z,10.05
2018-10-19T10:28:43.742Z,9.99
2018-10-19T10:29:43.678Z,9.96
2018-10-19T10:30:43.662Z,9.95
2018-10-19T10:31:43.888Z,9.99
2018-10-19T10:32:43.675Z,9.98
2018-10-19T10:33:43.711Z,9.97
2018-10-19T10:34:43.757Z,10.08
2018-10-19T10:35:43.689Z,10.03
2018-10-19T10:36:43.649Z,10
2018-10-19T10:37:43.647Z,10.02
2018-10-19T10:38:44.305Z,10.1
2018-10-19T10:39:43.644Z,10.06
2018-10-19T10:40:43.675Z,10
2018-10-19T10:41:43.658Z,10.03
2018-10-19T10:42:43.693Z,10.12
2018-10-19T10:43:43.702Z,10.08
2018-10-19T10:44:43.647Z,10.04
2018-10-19T10:45:43.661Z,10.08
2018-10-19T10:46:43.841Z,10.1
2018-10-19T10:47:43.716Z,10.02
2018-10-19T10:48:43.798Z,10.11
2018-10-19T10:49:43.658Z,10.13
2018-10-19T10:50:43.642Z,10.14
2018-10-19T10:51:43.646Z,10.06
2018-10-19T10:52:43.700Z,10.05
2018-10-19T10:53:43.693Z,10.1
2018-10-19T10:54:43.643Z,10.06
2018-10-19T10:55:43.892Z,10.1
2018-10-19T10:56:43.684Z,10.09
2018-10-19T10:57:43.671Z,10.07
2018-10-19T10:58:43.685Z,10.02
2018-10-19T10:59:43.632Z,9.98
2018-10-19T11:00:43.678Z,10.01
2018-10-19T11:01:43.665Z,9.99
2018-10-19T11:02:43.598Z,9.96
2018-10-19T11:03:43.785Z,10.03
2018-10-19T11:04:43.653Z,10.07
2018-10-19T11:05:43.615Z,10.02
2018-10-19T11:06:44.410Z,10.06
2018-10-19T11:07:44.669Z,10.13
2018-10-19T11:08:43.644Z,10.1
2018-10-19T11:09:43.594Z,10.1
2018-10-19T11:10:43.805Z,10.17
2018-10-19T11:11:43.810Z,10.13
2018-10-19T11:12:43.718Z,10.17
2018-10-19T11:13:43.653Z,10.17
2018-10-19T11:14:43.610Z,10.2
2018-10-19T11:15:43.607Z,10.14
2018-10-19T11:16:43.673Z,10.2
2018-10-19T11:17:43.699Z,10.24
2018-10-19T11:18:43.756Z,10.19
2018-10-19T11:19:43.656Z,10.21
2018-10-19T11:20:44.203Z,10.15
2018-10-19T11:21:43.576Z,10.08
2018-10-19T11:22:43.630Z,10.21
2018-10-19T11:23:43.619Z,10.3
2018-10-19T11:24:43.758Z,10.32
2018-10-19T11:25:43.730Z,10.08
2018-10-19T11:26:43.806Z,10.15
2018-10-19T11:27:43.690Z,10.07
2018-10-19T11:28:43.787Z,10.09
2018-10-19T11:29:43.780Z,10.12
2018-10-19T11:30:44.459Z,10.04
2018-10-19T11:31:43.624Z,10.04
2018-10-19T11:32:43.572Z,10.12
2018-10-19T11:33:43.692Z,10.17
2018-10-19T11:34:43.875Z,10.16
2018-10-19T11:35:43.634Z,10.07
2018-10-19T11:36:43.664Z,10.07
2018-10-19T11:37:44.266Z,10.05
2018-10-19T11:38:43.588Z,10.07
2018-10-19T11:39:43.568Z,10.16
2018-10-19T11:40:43.608Z,10.16
2018-10-19T11:41:43.668Z,10.19
2018-10-19T11:42:43.677Z,10.14
2018-10-19T11:43:43.597Z,10.1
2018-10-19T11:44:43.564Z,10.11
2018-10-19T11:45:43.631Z,10.11
2018-10-19T11:46:43.651Z,10.16
2018-10-19T11:47:43.575Z,10.16
2018-10-19T11:48:44.030Z,10.14
2018-10-19T11:49:43.604Z,10.09
2018-10-19T11:50:43.648Z,10.12
2018-10-19T11:51:43.704Z,10.24
2018-10-19T11:52:44.066Z,10.15
2018-10-19T11:53:43.866Z,10.19
2018-10-19T11:54:43.575Z,10.21
2018-10-19T11:55:43.584Z,10.14
2018-10-19T11:56:43.573Z,10.17
2018-10-19T11:57:43.597Z,10.19
2018-10-19T11:58:43.771Z,10.17
2018-10-19T11:59:43.622Z,10.15
2018-10-19T12:00:43.725Z,10.05
2018-10-19T12:01:43.538Z,9.99
2018-10-19T12:02:43.565Z,10.01
2018-10-19T12:03:44.229Z,10.05
2018-10-19T12:04:43.664Z,10.1
2018-10-19T12:05:43.517Z,10.18
2018-10-19T12:06:43.541Z,10.12
2018-10-19T12:07:43.599Z,10.15
2018-10-19T12:08:43.540Z,10.17
2018-10-19T12:09:43.730Z,10.17
2018-10-19T12:10:44.511Z,10.18
2018-10-19T12:11:43.516Z,10.23
2018-10-19T12:12:43.531Z,10.23
2018-10-19T12:13:43.547Z,10.25
2018-10-19T12:14:43.519Z,10.2
2018-10-19T12:15:43.512Z,10.15
2018-10-19T12:16:44.859Z,10.23
2018-10-19T12:17:43.534Z,10.27
2018-10-19T12:18:43.611Z,10.24
2018-10-19T12:19:43.514Z,10.1
2018-10-19T12:20:43.824Z,10.05
2018-10-19T12:21:43.542Z,10.1
2018-10-19T12:22:43.526Z,10.16
2018-10-19T12:23:43.512Z,10.18
2018-10-19T12:24:43.496Z,10.15
2018-10-19T12:25:43.504Z,10.12
2018-10-19T12:26:43.573Z,10.13
2018-10-19T12:27:43.505Z,10.11
2018-10-19T12:28:43.497Z,10.14
2018-10-19T12:29:43.661Z,10.16
2018-10-19T12:30:43.590Z,10.13
2018-10-19T12:31:43.532Z,10.13
2018-10-19T12:32:43.967Z,10.11
2018-10-19T12:33:43.581Z,10.14
2018-10-19T12:34:43.536Z,10.07
2018-10-19T12:35:43.884Z,10.06
2018-10-19T12:36:43.496Z,10.02
2018-10-19T12:37:43.530Z,10.08
2018-10-19T12:38:43.793Z,10.08
2018-10-19T12:39:43.583Z,10.08
2018-10-19T12:40:43.483Z,10.11
2018-10-19T12:41:43.483Z,10.18
2018-10-19T12:42:43.682Z,10.15
2018-10-19T12:43:43.518Z,10.17
2018-10-19T12:44:43.510Z,10.14
2018-10-19T12:45:43.612Z,10.12
2018-10-19T12:46:43.680Z,10.12
2018-10-19T12:47:43.566Z,10.14
2018-10-19T12:48:43.526Z,10.14
2018-10-19T12:49:43.635Z,10.13
2018-10-19T12:50:43.770Z,10.1
2018-10-19T12:51:43.546Z,10.09
2018-10-19T12:52:44.300Z,10.08
2018-10-19T12:53:43.790Z,10.06
2018-10-19T12:54:43.470Z,10.08
2018-10-19T12:55:43.488Z,10.19
2018-10-19T12:56:43.772Z,10.19
2018-10-19T12:57:43.729Z,10.14
2018-10-19T12:58:43.526Z,10.11
2018-10-19T12:59:43.537Z,10.12
2018-10-19T13:00:43.516Z,10.12
2018-10-19T13:01:43.524Z,10.16
2018-10-19T13:02:43.475Z,10.12
2018-10-19T13:03:44.383Z,10.12
2018-10-19T13:04:43.448Z,10.13
2018-10-19T13:05:43.522Z,10.06
2018-10-19T13:06:43.527Z,10.1
2018-10-19T13:07:43.517Z,10.12
2018-10-19T13:08:43.508Z,10.12
2018-10-19T13:09:43.467Z,10.13
2018-10-19T13:10:43.520Z,10.22
2018-10-19T13:11:43.501Z,10.17
2018-10-19T13:13:43.482Z,10.11
2018-10-19T13:14:43.430Z,10.11
2018-10-19T13:15:43.438Z,10.16
2018-10-19T13:16:43.452Z,10.18
2018-10-19T13:17:43.561Z,10.17
2018-10-19T13:18:43.521Z,10.21